Time;durP1;ratioP1;P1;durP2;ratioP2;P2;SDS_P1;SDS_P2;PMS_P1;PMS_P2;Temp;Humidity;BMP_temperature;BMP_pressure;BME280_temperature;BME280_humidity;BME280_pressure;Samples;Min_cycle;Max_cycle;Signal;HPM_P1;HPM_P2
2023/04/15 17:59:07;;;;;;;;;;;13.60;68.10;;;;;;6160388;23;19931;-96
2023/04/15 18:01:34;;;;;;;;;;;13.60;67.40;;;;;;6159056;23;19909;-96
2023/04/15 18:04:04;;;;;;;;;;;13.60;67.40;;;;;;6158881;23;19892;-96
2023/04/15 18:06:35;;;;;;;;;;;13.50;67.10;;;;;;6158680;23;19904;-96
2023/04/15 18:09:01;;;;;;;;;;;13.40;67.20;;;;;;6156996;23;20274;-96
2023/04/15 18:11:27;;;;;;;;;;;13.40;67.50;;;;;;6158487;23;19893;-96
2023/04/15 18:13:53;;;;;;;;;;;13.30;67.80;;;;;;6157375;23;19992;-96
2023/04/15 18:16:19;;;;;;;;;;;13.30;68.00;;;;;;6156807;23;19920;-96
2023/04/15 18:18:45;;;;;;;;;;;13.20;68.40;;;;;;6155709;23;19895;-96
2023/04/15 18:21:11;;;;;;;;;;;13.10;68.50;;;;;;6181024;23;19905;-96
2023/04/15 18:23:37;;;;;;;;;;;13.10;69.00;;;;;;6155315;23;19920;-96
2023/04/15 18:26:04;;;;;;;;;;;13.00;69.30;;;;;;6158042;23;19900;-96
2023/04/15 18:28:31;;;;;;;;;;;12.90;69.60;;;;;;6133203;23;19893;-96
2023/04/15 18:30:58;;;;;;;;;;;12.90;69.90;;;;;;6156945;23;19916;-96
2023/04/15 18:33:24;;;;;;;;;;;12.80;70.20;;;;;;6153646;23;19948;-96
2023/04/15 18:35:49;;;;;;;;;;;12.80;69.90;;;;;;6153572;23;19912;-96
2023/04/15 18:38:15;;;;;;;;;;;12.70;69.90;;;;;;6151030;23;19928;-96
2023/04/15 18:40:41;;;;;;;;;;;12.70;70.10;;;;;;6155692;23;19893;-96
2023/04/15 18:43:13;;;;;;;;;;;12.50;70.60;;;;;;6183998;23;19901;-96
2023/04/15 18:45:39;;;;;;;;;;;12.40;71.00;;;;;;6133702;23;19909;-96
2023/04/15 18:48:09;;;;;;;;;;;12.40;71.60;;;;;;6183054;23;19905;-96
2023/04/15 18:50:37;;;;;;;;;;;12.30;71.70;;;;;;6156888;23;19940;-96
2023/04/15 18:53:04;;;;;;;;;;;12.30;71.80;;;;;;6157709;23;19928;-96
2023/04/15 18:55:33;;;;;;;;;;;12.40;71.90;;;;;;6158449;23;19915;-96
2023/04/15 19:09:53;;;;;;;;;;;12.20;72.20;;;;;;6165236;23;19973;-96
2023/04/15 19:12:23;;;;;;;;;;;12.10;72.30;;;;;;6184299;23;19909;-96
2023/04/15 19:14:51;;;;;;;;;;;12.10;72.40;;;;;;6184439;23;19905;-96
2023/04/15 19:17:20;;;;;;;;;;;12.10;72.50;;;;;;6158311;23;19935;-96
2023/04/15 19:19:51;;;;;;;;;;;12.00;72.60;;;;;;6133581;23;19909;-96
2023/04/15 19:22:17;;;;;;;;;;;12.00;72.70;;;;;;6158821;23;19909;-96
2023/04/15 19:24:45;;;;;;;;;;;11.90;73.00;;;;;;6158336;23;19905;-96
2023/04/15 19:27:14;;;;;;;;;;;11.90;72.90;;;;;;6159069;23;19900;-96
2023/04/15 19:29:54;;;;;;;;;;;11.90;73.10;;;;;;6183772;23;19900;-96
2023/04/15 19:32:24;;;;;;;;;;;11.90;73.10;;;;;;6158637;23;20357;-96
2023/04/15 19:34:51;;;;;;;;;;;11.80;73.00;;;;;;6158036;23;19905;-96
2023/04/15 19:37:27;;;;;;;;;;;11.80;73.00;;;;;;6180952;23;19900;-96
2023/04/15 19:39:57;;;;;;;;;;;11.80;72.70;;;;;;6134133;23;19905;-96
2023/04/15 19:42:24;;;;;;;;;;;11.80;72.70;;;;;;6158612;23;19932;-96
2023/04/15 19:44:55;;;;;;;;;;;11.80;72.40;;;;;;6158732;23;19908;-96
2023/04/15 19:47:26;;;;;;;;;;;11.80;72.30;;;;;;6183662;23;19889;-96
2023/04/15 19:49:53;;;;;;;;;;;11.80;72.20;;;;;;6158226;23;19936;-96
2023/04/15 19:52:25;;;;;;;;;;;11.70;72.20;;;;;;6157927;23;19920;-96
2023/04/15 19:54:54;;;;;;;;;;;11.70;72.50;;;;;;6158548;23;19924;-96
2023/04/15 19:57:22;;;;;;;;;;;11.60;72.70;;;;;;6158979;23;19893;-96
2023/04/15 19:59:48;;;;;;;;;;;11.50;72.80;;;;;;6160460;23;19948;-96
2023/04/15 20:02:15;;;;;;;;;;;11.50;72.80;;;;;;6148648;23;19969;-96
2023/04/15 20:04:42;;;;;;;;;;;11.50;72.80;;;;;;6154817;23;19896;-96
2023/04/15 20:07:09;;;;;;;;;;;11.50;72.90;;;;;;6154460;23;19905;-96
2023/04/15 20:09:35;;;;;;;;;;;11.40;72.90;;;;;;6154132;23;19916;-96
2023/04/15 20:12:01;;;;;;;;;;;11.40;72.50;;;;;;6154912;23;19912;-96
2023/04/15 20:14:30;;;;;;;;;;;11.30;72.30;;;;;;6155066;23;19889;-96
2023/04/15 20:17:00;;;;;;;;;;;11.20;72.30;;;;;;6154986;23;19905;-96
2023/04/15 20:19:29;;;;;;;;;;;11.20;72.20;;;;;;6154969;23;19893;-96
2023/04/15 20:21:55;;;;;;;;;;;11.10;72.10;;;;;;6154741;23;19905;-96
2023/04/15 20:24:23;;;;;;;;;;;11.10;72.20;;;;;;6154879;23;19910;-96
2023/04/15 20:26:52;;;;;;;;;;;11.00;72.50;;;;;;6155350;23;19897;-96
2023/04/15 20:29:25;;;;;;;;;;;10.90;73.00;;;;;;6154039;23;19933;-96
2023/04/15 20:31:51;;;;;;;;;;;11.00;73.00;;;;;;6153854;23;19889;-96
2023/04/15 20:34:18;;;;;;;;;;;11.00;73.30;;;;;;6155042;23;19913;-96
2023/04/15 20:36:45;;;;;;;;;;;10.90;73.50;;;;;;6153992;23;19905;-96
2023/04/15 20:39:11;;;;;;;;;;;10.90;73.70;;;;;;6153211;23;19889;-96
2023/04/15 20:41:42;;;;;;;;;;;10.90;73.80;;;;;;6153252;23;19913;-97
2023/04/15 20:44:08;;;;;;;;;;;10.90;73.90;;;;;;6153416;23;19912;-96
2023/04/15 20:46:35;;;;;;;;;;;10.90;73.90;;;;;;6153535;23;19905;-96
2023/04/15 20:49:01;;;;;;;;;;;10.90;74.20;;;;;;6152910;23;19947;-96
2023/04/15 20:51:27;;;;;;;;;;;10.80;74.60;;;;;;6152826;23;19889;-96
2023/04/15 20:53:54;;;;;;;;;;;10.80;74.70;;;;;;6152046;23;19912;-96
2023/04/15 20:56:24;;;;;;;;;;;10.80;75.00;;;;;;6155478;23;19913;-96
2023/04/15 20:58:52;;;;;;;;;;;10.80;75.10;;;;;;6155519;23;19909;-96
2023/04/15 21:01:23;;;;;;;;;;;10.80;75.40;;;;;;6156586;23;19905;-96
2023/04/15 21:03:52;;;;;;;;;;;10.80;75.60;;;;;;6159826;23;19915;-96
2023/04/15 21:06:19;;;;;;;;;;;10.70;76.00;;;;;;6184649;23;20307;-96
2023/04/15 21:08:45;;;;;;;;;;;10.70;76.20;;;;;;6158968;23;19941;-96
2023/04/15 21:11:15;;;;;;;;;;;10.70;76.50;;;;;;6185028;23;19936;-96
2023/04/15 21:13:41;;;;;;;;;;;10.70;76.50;;;;;;6159262;23;19928;-96
2023/04/15 21:16:09;;;;;;;;;;;10.70;76.50;;;;;;6158569;23;19905;-96
2023/04/15 21:18:35;;;;;;;;;;;10.60;76.60;;;;;;6158524;23;19912;-96
2023/04/15 21:21:01;;;;;;;;;;;10.50;76.80;;;;;;6157208;23;19904;-96
2023/04/15 21:23:28;;;;;;;;;;;10.40;77.10;;;;;;6179343;23;19896;-96
2023/04/15 21:25:57;;;;;;;;;;;10.40;77.30;;;;;;6178811;23;19912;-96
2023/04/15 21:28:23;;;;;;;;;;;10.30;77.60;;;;;;6173594;23;19904;-96
2023/04/15 21:30:49;;;;;;;;;;;10.30;77.80;;;;;;6170721;23;20231;-96
2023/04/15 21:33:15;;;;;;;;;;;10.30;78.20;;;;;;6170766;23;19997;-96
2023/04/15 21:35:41;;;;;;;;;;;10.40;78.30;;;;;;6141856;23;19953;-96
2023/04/15 21:38:06;;;;;;;;;;;10.40;78.20;;;;;;6167998;23;19948;-96
2023/04/15 21:40:39;;;;;;;;;;;10.40;78.10;;;;;;6157841;23;19892;-96
